Oceanside, Washington
Current Conditions -  °F | °C
As of 2:41 AM on Sunday 21 Dec 2014 (Local Time) from KAST Reporting Station
Overcast Overcast  
Wind Chill: 55°   Ceiling: 1100
Heat Index: 55°   Visibility: 8mi
Dew Point: 52°   Wind: 12mph
Humidity: 89%   Direction: 250°WSW
Pressure: 29.82"   Gusts: NA
Location:  46.3832°N, 124.042°W
Report Text: KAST 211041Z AUTO 25010KT 8SM BKN011 BKN016 OVC024 13/11 A2982 RMK AO2 T01280111 $
Loading
Personal Weather Stations






























Interactive Weather Map New forecast layout! Learn more

10-Day Weather Forecast

Advertisements
Track Severe Weather on mobile